createdAt,value
2017-10-24T00:01:03.226Z,84.84
2017-10-24T00:02:10.148Z,84.85
2017-10-24T00:03:16.990Z,84.86
2017-10-24T00:04:23.889Z,84.90
2017-10-24T00:05:30.744Z,84.92
2017-10-24T00:06:37.629Z,84.96
2017-10-24T00:07:44.524Z,84.96
2017-10-24T00:08:51.393Z,84.96
2017-10-24T00:09:58.189Z,84.99
2017-10-24T00:11:05.001Z,84.99
2017-10-24T00:12:11.781Z,85.03
2017-10-24T00:13:18.561Z,85.03
2017-10-24T00:14:25.376Z,85.03
2017-10-24T00:15:32.188Z,85.05
2017-10-24T00:16:38.966Z,85.06
2017-10-24T00:17:45.733Z,85.12
2017-10-24T00:18:52.531Z,85.10
2017-10-24T00:19:59.308Z,85.12
2017-10-24T00:21:06.114Z,85.16
2017-10-24T00:22:12.909Z,85.19
2017-10-24T00:23:19.712Z,85.21
2017-10-24T00:24:26.585Z,85.22
2017-10-24T00:25:33.456Z,85.25
2017-10-24T00:26:40.258Z,85.24
2017-10-24T00:27:46.999Z,85.27
2017-10-24T00:28:53.762Z,85.28
2017-10-24T00:30:00.537Z,85.29
2017-10-24T00:31:07.390Z,85.32
2017-10-24T00:32:14.177Z,85.37
2017-10-24T00:33:20.949Z,85.39
2017-10-24T00:34:27.745Z,85.41
2017-10-24T00:35:34.532Z,85.39
2017-10-24T00:36:41.364Z,85.41
2017-10-24T00:37:48.132Z,85.42
2017-10-24T00:38:54.954Z,85.47
2017-10-24T00:40:01.710Z,85.50
2017-10-24T00:41:08.559Z,85.51
2017-10-24T00:42:15.392Z,85.55
2017-10-24T00:43:22.141Z,85.57
2017-10-24T00:44:28.917Z,85.54
2017-10-24T00:45:35.675Z,85.59
2017-10-24T00:46:42.453Z,85.58
2017-10-24T00:47:49.377Z,85.64
2017-10-24T00:48:56.144Z,85.66
2017-10-24T00:50:03.032Z,85.70
2017-10-24T00:51:09.822Z,85.71
2017-10-24T00:52:16.608Z,85.70
2017-10-24T00:53:23.392Z,85.66
2017-10-24T00:54:30.177Z,85.71
2017-10-24T00:55:36.943Z,85.71
2017-10-24T00:56:43.864Z,85.71
2017-10-24T00:57:50.724Z,85.73
2017-10-24T00:58:57.592Z,85.75
2017-10-24T01:00:04.432Z,85.77
2017-10-24T01:01:11.355Z,85.81
2017-10-24T01:02:18.163Z,85.79
2017-10-24T01:03:24.909Z,85.83
2017-10-24T01:04:32.021Z,85.86
2017-10-24T01:05:38.826Z,85.89
2017-10-24T01:06:45.732Z,85.86
2017-10-24T01:07:52.501Z,85.88
2017-10-24T01:08:59.257Z,85.87
2017-10-24T01:10:06.088Z,85.91
2017-10-24T01:11:12.929Z,85.91
2017-10-24T01:12:19.821Z,85.95
2017-10-24T01:13:26.623Z,85.93
2017-10-24T01:14:33.405Z,85.91
2017-10-24T01:15:40.480Z,85.96
2017-10-24T01:16:47.325Z,85.96
2017-10-24T01:17:54.114Z,85.97
2017-10-24T01:19:00.857Z,85.97
2017-10-24T01:20:07.686Z,86.00
2017-10-24T01:21:14.677Z,86.00
2017-10-24T01:22:21.561Z,86.03
2017-10-24T01:23:28.516Z,86.03
2017-10-24T01:24:35.293Z,86.07
2017-10-24T01:25:42.614Z,86.11
2017-10-24T01:26:48.973Z,86.11
2017-10-24T01:27:55.845Z,86.12
2017-10-24T01:29:02.672Z,86.11
2017-10-24T01:30:09.480Z,86.13
2017-10-24T01:31:16.283Z,86.15
2017-10-24T01:32:23.074Z,86.13
2017-10-24T01:33:30.257Z,86.16
2017-10-24T01:34:37.090Z,86.15
2017-10-24T01:35:44.269Z,86.17
2017-10-24T01:36:51.205Z,86.20
2017-10-24T01:37:58.108Z,86.21
2017-10-24T01:39:05.044Z,86.22
2017-10-24T01:40:11.880Z,86.24
2017-10-24T01:41:18.787Z,86.27
2017-10-24T01:42:25.643Z,86.28
2017-10-24T01:43:32.555Z,86.30
2017-10-24T01:44:39.393Z,86.25
2017-10-24T01:45:46.452Z,86.28
2017-10-24T01:46:53.291Z,86.28
2017-10-24T01:48:00.229Z,86.32
2017-10-24T01:49:07.085Z,86.34
2017-10-24T01:50:13.952Z,86.37
2017-10-24T01:51:20.752Z,86.38
2017-10-24T01:52:27.577Z,86.37
2017-10-24T01:53:34.404Z,86.39
2017-10-24T01:54:41.216Z,86.41
2017-10-24T01:55:48.433Z,86.40
2017-10-24T01:56:55.292Z,86.40
2017-10-24T01:58:02.140Z,86.42
2017-10-24T01:59:08.972Z,86.43
2017-10-24T02:00:15.886Z,86.46
2017-10-24T02:01:22.768Z,86.46
2017-10-24T02:02:29.624Z,86.49
2017-10-24T02:03:36.489Z,86.52
2017-10-24T02:04:43.372Z,86.52
2017-10-24T02:05:50.330Z,86.55
2017-10-24T02:06:57.150Z,86.52
2017-10-24T02:08:04.002Z,86.54
2017-10-24T02:09:10.895Z,86.55
2017-10-24T02:10:17.753Z,86.54
2017-10-24T02:11:24.545Z,86.54
2017-10-24T02:12:31.357Z,86.54
2017-10-24T02:13:38.108Z,86.53
2017-10-24T02:14:44.966Z,86.56
2017-10-24T02:15:51.882Z,86.58
2017-10-24T02:16:58.703Z,86.60
2017-10-24T02:18:05.529Z,86.63
2017-10-24T02:19:12.407Z,86.64
2017-10-24T02:20:19.424Z,86.63
2017-10-24T02:21:26.374Z,86.63
2017-10-24T02:22:33.277Z,86.63
2017-10-24T02:23:40.145Z,86.62
2017-10-24T02:24:46.942Z,86.62
2017-10-24T02:25:53.786Z,86.63
2017-10-24T02:27:00.747Z,86.66
2017-10-24T02:28:07.537Z,86.65
2017-10-24T02:29:14.376Z,86.69
2017-10-24T02:30:21.187Z,86.67
2017-10-24T02:31:28.112Z,86.69
2017-10-24T02:32:34.904Z,86.70
2017-10-24T02:33:41.913Z,86.72
2017-10-24T02:34:48.736Z,86.73
2017-10-24T02:35:55.605Z,86.75
2017-10-24T02:37:02.438Z,86.76
2017-10-24T02:38:09.330Z,86.74
2017-10-24T02:39:16.152Z,86.74
2017-10-24T02:40:22.973Z,86.77
2017-10-24T02:41:30.184Z,86.76
2017-10-24T02:42:36.875Z,86.73
2017-10-24T02:43:43.209Z,86.74
2017-10-24T02:44:50.089Z,86.76
2017-10-24T02:45:56.939Z,86.81
2017-10-24T02:47:03.736Z,86.79
2017-10-24T02:48:10.497Z,86.77
2017-10-24T02:49:17.560Z,86.76
2017-10-24T02:50:24.415Z,86.80
2017-10-24T02:51:31.322Z,86.78
2017-10-24T02:52:38.213Z,86.82
2017-10-24T02:53:45.074Z,86.83
2017-10-24T02:54:51.869Z,86.80
2017-10-24T02:55:58.652Z,86.83
2017-10-24T02:57:05.473Z,86.86
2017-10-24T02:58:12.321Z,86.84
2017-10-24T02:59:19.187Z,86.86
2017-10-24T03:00:26.076Z,86.86
2017-10-24T03:01:32.937Z,86.86
2017-10-24T03:02:39.811Z,86.87
2017-10-24T03:03:46.681Z,86.89
2017-10-24T03:04:53.505Z,86.90
2017-10-24T03:06:00.434Z,86.91
2017-10-24T03:07:07.274Z,86.91
2017-10-24T03:08:14.069Z,86.91
2017-10-24T03:09:20.898Z,86.93
2017-10-24T03:10:27.736Z,86.93
2017-10-24T03:11:34.581Z,86.94
2017-10-24T03:12:41.537Z,86.98
2017-10-24T03:13:48.352Z,86.99
2017-10-24T03:14:55.182Z,87.03
2017-10-24T03:16:01.949Z,87.02
2017-10-24T03:17:08.747Z,87.02
2017-10-24T03:18:15.612Z,87.04
2017-10-24T03:19:22.448Z,87.06
2017-10-24T03:20:29.281Z,87.08
2017-10-24T03:21:36.329Z,87.09
2017-10-24T03:22:43.176Z,87.12
2017-10-24T03:23:49.980Z,87.12
2017-10-24T03:24:56.818Z,87.15
2017-10-24T03:26:03.708Z,87.19
2017-10-24T03:27:10.609Z,87.21
2017-10-24T03:28:17.633Z,87.25
2017-10-24T03:29:24.508Z,87.26
2017-10-24T03:30:31.306Z,87.28
2017-10-24T03:31:38.097Z,87.32
2017-10-24T03:32:44.832Z,87.33
2017-10-24T03:33:51.612Z,87.34
2017-10-24T03:34:58.430Z,87.36
2017-10-24T03:36:05.415Z,87.36
2017-10-24T03:37:12.221Z,87.39
2017-10-24T03:38:19.046Z,87.41
2017-10-24T03:39:25.824Z,87.40
2017-10-24T03:40:32.606Z,87.41
2017-10-24T03:41:39.446Z,87.43
2017-10-24T03:42:46.410Z,87.45
2017-10-24T03:43:53.176Z,87.45
2017-10-24T03:45:00.655Z,87.50
2017-10-24T03:46:06.978Z,87.48
2017-10-24T03:47:13.910Z,87.49
2017-10-24T03:48:20.684Z,87.46
2017-10-24T03:49:27.457Z,87.50
2017-10-24T03:50:34.253Z,87.49
2017-10-24T03:51:41.043Z,87.50
2017-10-24T03:52:47.885Z,87.50
2017-10-24T03:53:54.740Z,87.49
2017-10-24T03:55:01.542Z,87.52
2017-10-24T03:56:08.311Z,87.49
2017-10-24T03:57:15.140Z,87.52
2017-10-24T03:58:22.015Z,87.51
2017-10-24T03:59:28.857Z,87.53
2017-10-24T04:00:35.592Z,87.50
2017-10-24T04:01:42.392Z,87.50
2017-10-24T04:02:49.245Z,87.50
2017-10-24T04:03:56.000Z,87.53
2017-10-24T04:05:02.788Z,87.53
2017-10-24T04:06:09.668Z,87.52
2017-10-24T04:07:16.544Z,87.53
2017-10-24T04:08:23.724Z,87.55
2017-10-24T04:09:30.532Z,87.53
2017-10-24T04:10:37.317Z,87.52
2017-10-24T04:11:44.093Z,87.52
2017-10-24T04:12:50.856Z,87.48
2017-10-24T04:13:57.645Z,87.47
2017-10-24T04:15:04.661Z,87.44
2017-10-24T04:16:11.464Z,87.42
2017-10-24T04:17:18.321Z,87.43
2017-10-24T04:18:25.402Z,87.42
2017-10-24T04:19:32.142Z,87.40
2017-10-24T04:20:38.991Z,87.40
2017-10-24T04:21:45.881Z,87.38
2017-10-24T04:22:52.686Z,87.41
2017-10-24T04:23:59.553Z,87.38
2017-10-24T04:25:06.393Z,87.41
2017-10-24T04:26:13.364Z,87.37
2017-10-24T04:27:20.217Z,87.40
2017-10-24T04:28:27.027Z,87.41
2017-10-24T04:29:33.853Z,87.40
2017-10-24T04:30:40.657Z,87.37
2017-10-24T04:31:47.492Z,87.41
2017-10-24T04:32:54.356Z,87.41
2017-10-24T04:34:01.157Z,87.36
2017-10-24T04:35:07.990Z,87.37
2017-10-24T04:36:14.893Z,87.37
2017-10-24T04:37:21.776Z,87.40
2017-10-24T04:38:28.672Z,87.40
2017-10-24T04:39:35.499Z,87.41
2017-10-24T04:40:42.294Z,87.42
2017-10-24T04:41:49.126Z,87.46
2017-10-24T04:42:55.957Z,87.47
2017-10-24T04:44:04.277Z,87.47
2017-10-24T04:45:09.622Z,87.51
2017-10-24T04:46:16.509Z,87.54
2017-10-24T04:47:23.325Z,87.56
2017-10-24T04:48:30.111Z,87.58
2017-10-24T04:49:36.909Z,87.60
2017-10-24T04:50:44.060Z,87.62
2017-10-24T04:51:50.441Z,87.62
2017-10-24T04:52:57.317Z,87.67
2017-10-24T04:54:04.149Z,87.64
2017-10-24T04:55:10.954Z,87.63
2017-10-24T04:56:17.755Z,87.66
2017-10-24T04:57:24.580Z,87.69
2017-10-24T04:58:31.333Z,87.64
2017-10-24T04:59:38.097Z,87.67
2017-10-24T05:00:44.877Z,87.65
2017-10-24T05:01:51.692Z,87.67
2017-10-24T05:02:58.511Z,87.68
2017-10-24T05:04:05.337Z,87.67
2017-10-24T05:05:12.243Z,87.67
2017-10-24T05:06:19.032Z,87.64
2017-10-24T05:07:25.844Z,87.63
2017-10-24T05:08:32.667Z,87.62
2017-10-24T05:09:39.573Z,87.64
2017-10-24T05:10:46.371Z,87.66
2017-10-24T05:11:53.210Z,87.62
2017-10-24T05:12:59.995Z,87.61
2017-10-24T05:14:06.803Z,87.62
2017-10-24T05:15:13.632Z,87.63
2017-10-24T05:16:20.542Z,87.64
2017-10-24T05:17:27.344Z,87.64
2017-10-24T05:18:34.133Z,87.65
2017-10-24T05:19:40.905Z,87.69
2017-10-24T05:20:47.773Z,87.67
2017-10-24T05:21:54.553Z,87.68
2017-10-24T05:23:01.577Z,87.67
2017-10-24T05:24:08.325Z,87.66
2017-10-24T05:25:15.201Z,87.66
2017-10-24T05:26:22.021Z,87.68
2017-10-24T05:27:29.152Z,87.69
2017-10-24T05:28:36.029Z,87.69
2017-10-24T05:29:42.820Z,87.71
2017-10-24T05:30:49.633Z,87.76
2017-10-24T05:31:56.512Z,87.82
2017-10-24T05:33:03.504Z,87.83
2017-10-24T05:34:10.305Z,87.84
2017-10-24T05:35:17.097Z,87.86
2017-10-24T05:36:23.938Z,87.85
2017-10-24T05:37:30.890Z,87.88
2017-10-24T05:38:37.737Z,87.85
2017-10-24T05:39:44.673Z,87.85
2017-10-24T05:40:51.466Z,87.83
2017-10-24T05:41:58.253Z,87.84
2017-10-24T05:43:05.070Z,87.82
2017-10-24T05:44:11.864Z,87.81
2017-10-24T05:45:18.800Z,87.81
2017-10-24T05:46:25.713Z,87.80
2017-10-24T05:47:32.556Z,87.82
2017-10-24T05:48:39.379Z,87.80
2017-10-24T05:49:46.161Z,87.78
2017-10-24T05:50:52.969Z,87.80
2017-10-24T05:51:59.789Z,87.79
2017-10-24T05:53:06.681Z,87.77
2017-10-24T05:54:13.519Z,87.80
2017-10-24T05:55:20.665Z,87.79
2017-10-24T05:56:27.324Z,87.81
2017-10-24T05:57:34.180Z,87.83
2017-10-24T05:58:40.989Z,87.83
2017-10-24T05:59:47.766Z,87.83
2017-10-24T06:00:54.704Z,87.83
2017-10-24T06:02:01.517Z,87.83
2017-10-24T06:03:08.630Z,87.86
2017-10-24T06:04:15.430Z,87.86
2017-10-24T06:05:22.177Z,87.89
2017-10-24T06:06:28.978Z,87.86
2017-10-24T06:07:35.942Z,87.92
2017-10-24T06:08:42.720Z,87.93
2017-10-24T06:09:49.710Z,87.94
2017-10-24T06:10:56.514Z,87.93
2017-10-24T06:12:03.347Z,87.94
2017-10-24T06:13:10.130Z,87.92
2017-10-24T06:14:16.961Z,87.96
2017-10-24T06:15:23.776Z,87.93
2017-10-24T06:16:30.583Z,87.96
2017-10-24T06:17:37.452Z,88.02
2017-10-24T06:18:44.285Z,88.04
2017-10-24T06:19:51.242Z,88.03
2017-10-24T06:20:58.124Z,88.03
2017-10-24T06:22:05.672Z,88.00
2017-10-24T06:23:12.421Z,88.02
2017-10-24T06:24:19.216Z,88.04
2017-10-24T06:25:26.071Z,88.02
2017-10-24T06:26:32.981Z,88.02
2017-10-24T06:27:39.914Z,87.99
2017-10-24T06:28:46.705Z,88.01
2017-10-24T06:29:53.488Z,88.01
2017-10-24T06:31:00.268Z,88.02
2017-10-24T06:32:07.103Z,88.06
2017-10-24T06:33:13.910Z,88.04
2017-10-24T06:34:20.720Z,88.03
2017-10-24T06:35:27.508Z,88.02
2017-10-24T06:36:34.390Z,88.04
2017-10-24T06:37:41.225Z,88.05
2017-10-24T06:38:48.244Z,88.08
2017-10-24T06:39:55.106Z,88.08
2017-10-24T06:41:01.944Z,88.09
2017-10-24T06:42:08.783Z,88.11
2017-10-24T06:43:15.581Z,88.10
2017-10-24T06:43:42.038Z,88.09
2017-10-24T06:44:49.040Z,88.11
2017-10-24T06:45:55.893Z,88.16
2017-10-24T06:47:02.879Z,88.18
2017-10-24T06:48:09.709Z,88.18
2017-10-24T06:49:16.542Z,88.16
2017-10-24T06:50:23.444Z,88.18
2017-10-24T06:51:30.256Z,88.19
2017-10-24T06:52:37.179Z,88.20
2017-10-24T06:53:44.001Z,88.18
2017-10-24T06:54:50.824Z,88.19
2017-10-24T06:55:57.806Z,88.18
2017-10-24T06:57:04.645Z,88.17
2017-10-24T06:58:11.437Z,88.16
2017-10-24T06:59:18.265Z,88.15
2017-10-24T07:00:26.166Z,88.17
2017-10-24T07:01:31.872Z,88.15
2017-10-24T07:02:38.945Z,88.17
2017-10-24T07:03:45.807Z,88.17
2017-10-24T07:04:52.785Z,88.17
2017-10-24T07:05:59.778Z,88.20
2017-10-24T07:07:06.710Z,88.23
2017-10-24T07:08:13.514Z,88.26
2017-10-24T07:09:20.325Z,88.23
2017-10-24T07:10:27.145Z,88.20
2017-10-24T07:11:34.009Z,88.22
2017-10-24T07:12:40.834Z,88.24
2017-10-24T07:13:47.764Z,88.24
2017-10-24T07:14:54.577Z,88.25
2017-10-24T07:16:01.509Z,88.25
2017-10-24T07:17:08.295Z,88.23
2017-10-24T07:18:15.233Z,88.22
2017-10-24T07:19:22.492Z,88.28
2017-10-24T07:20:30.940Z,88.28
2017-10-24T07:21:37.573Z,88.26
2017-10-24T07:22:43.197Z,88.28
2017-10-24T07:23:49.482Z,88.29
2017-10-24T07:24:56.251Z,88.30
2017-10-24T07:26:03.146Z,88.32
2017-10-24T07:27:09.998Z,88.31
2017-10-24T07:28:16.953Z,88.38
2017-10-24T07:29:23.702Z,88.41
2017-10-24T07:30:30.674Z,88.42
2017-10-24T07:31:37.481Z,88.44
2017-10-24T07:32:44.330Z,88.45
2017-10-24T07:33:51.148Z,88.45
2017-10-24T07:34:57.944Z,88.45
2017-10-24T07:36:04.804Z,88.39
2017-10-24T07:37:11.653Z,88.37
2017-10-24T07:38:18.467Z,88.39
2017-10-24T07:39:25.303Z,88.40
2017-10-24T07:40:32.160Z,88.37
2017-10-24T07:41:39.245Z,88.35
2017-10-24T07:42:46.060Z,88.43
2017-10-24T07:43:52.974Z,88.47
2017-10-24T07:44:59.899Z,88.52
2017-10-24T07:46:06.789Z,88.49
2017-10-24T07:47:13.653Z,88.47
2017-10-24T07:48:20.589Z,88.48
2017-10-24T07:49:27.382Z,88.53
2017-10-24T07:50:34.460Z,88.51
2017-10-24T07:51:41.361Z,88.57
2017-10-24T07:52:48.413Z,88.56
2017-10-24T07:53:55.205Z,88.59
2017-10-24T07:55:02.104Z,88.58
2017-10-24T07:56:08.909Z,88.58
2017-10-24T07:57:15.673Z,88.58
2017-10-24T07:58:22.557Z,88.62
2017-10-24T07:59:29.313Z,88.65
2017-10-24T08:00:36.066Z,88.67
2017-10-24T08:01:42.957Z,88.68
2017-10-24T08:02:49.820Z,88.69
2017-10-24T08:03:56.688Z,88.72
2017-10-24T08:05:03.477Z,88.74
2017-10-24T08:06:10.261Z,88.77
2017-10-24T08:07:17.036Z,88.76
2017-10-24T08:08:23.964Z,88.72
2017-10-24T08:09:30.796Z,88.74
2017-10-24T08:10:37.619Z,88.75
2017-10-24T08:11:44.496Z,88.79
2017-10-24T08:12:51.645Z,88.79
2017-10-24T08:13:58.472Z,88.81
2017-10-24T08:15:05.361Z,88.81
2017-10-24T08:16:12.129Z,88.81
2017-10-24T08:17:18.969Z,88.81
2017-10-24T08:18:25.713Z,88.80
2017-10-24T08:19:32.521Z,88.84
2017-10-24T08:20:39.368Z,88.87
2017-10-24T08:21:46.418Z,88.88
2017-10-24T08:22:53.233Z,88.91
2017-10-24T08:24:00.036Z,88.92
2017-10-24T08:25:06.852Z,88.95
2017-10-24T08:26:13.662Z,88.98
2017-10-24T08:27:20.483Z,88.97
2017-10-24T08:28:27.356Z,89.04
2017-10-24T08:29:34.234Z,89.04
2017-10-24T08:30:41.118Z,89.05
2017-10-24T08:31:47.942Z,89.10
2017-10-24T08:32:54.803Z,89.17
2017-10-24T08:34:01.552Z,89.20
2017-10-24T08:35:08.316Z,89.21
2017-10-24T08:36:15.116Z,89.21
2017-10-24T08:37:21.903Z,89.22
2017-10-24T08:38:28.664Z,89.22
2017-10-24T08:39:35.474Z,89.26
2017-10-24T08:40:42.293Z,89.29
2017-10-24T08:41:49.320Z,89.29
2017-10-24T08:42:56.105Z,89.32
2017-10-24T08:44:02.988Z,89.38
2017-10-24T08:45:09.938Z,89.39
2017-10-24T08:46:16.837Z,89.39
2017-10-24T08:47:23.640Z,89.36
2017-10-24T08:48:30.497Z,89.36
2017-10-24T08:49:37.264Z,89.38
2017-10-24T08:50:44.133Z,89.37
2017-10-24T08:51:51.027Z,89.37
2017-10-24T08:52:58.333Z,89.40
2017-10-24T08:54:04.596Z,89.42
2017-10-24T08:55:11.395Z,89.43
2017-10-24T08:56:18.281Z,89.47
2017-10-24T08:57:25.119Z,89.53
2017-10-24T08:58:32.044Z,89.56
2017-10-24T08:59:38.858Z,89.59
2017-10-24T09:00:45.663Z,89.59
2017-10-24T09:01:52.560Z,89.66
2017-10-24T09:03:01.045Z,89.68
2017-10-24T09:04:06.604Z,89.71
2017-10-24T09:05:17.983Z,89.72
2017-10-24T09:06:20.428Z,89.74
2017-10-24T09:07:27.090Z,89.72
2017-10-24T09:08:34.133Z,89.70
2017-10-24T09:09:41.183Z,89.71
2017-10-24T09:10:48.172Z,89.73
2017-10-24T09:11:55.038Z,89.73
2017-10-24T09:13:01.700Z,89.76
2017-10-24T09:14:08.652Z,89.76
2017-10-24T09:15:15.414Z,89.77
2017-10-24T09:16:22.181Z,89.75
2017-10-24T09:17:29.353Z,89.74
2017-10-24T09:18:35.812Z,89.77
2017-10-24T09:19:42.797Z,89.78
2017-10-24T09:20:49.667Z,89.78
2017-10-24T09:21:56.673Z,89.77
2017-10-24T09:23:03.521Z,89.76
2017-10-24T09:24:10.399Z,89.76
2017-10-24T09:25:17.357Z,89.78
2017-10-24T09:26:24.144Z,89.72
2017-10-24T09:27:31.092Z,89.74
2017-10-24T09:28:38.292Z,89.77
2017-10-24T09:29:45.134Z,89.76
2017-10-24T09:30:51.916Z,89.78
2017-10-24T09:31:58.869Z,89.78
2017-10-24T09:33:05.641Z,89.80
2017-10-24T09:34:12.490Z,89.80
2017-10-24T09:35:19.305Z,89.81
2017-10-24T09:36:26.234Z,89.78
2017-10-24T09:37:33.309Z,89.78
2017-10-24T09:38:40.184Z,89.75
2017-10-24T09:39:47.195Z,89.77
2017-10-24T09:40:54.040Z,89.78
2017-10-24T09:42:00.992Z,89.76
2017-10-24T09:43:07.864Z,89.75
2017-10-24T09:44:14.657Z,89.72
2017-10-24T09:45:21.453Z,89.73
2017-10-24T09:46:28.249Z,89.70
2017-10-24T09:47:35.393Z,89.70
2017-10-24T09:48:42.172Z,89.70
2017-10-24T09:49:48.989Z,89.63
2017-10-24T09:50:55.997Z,89.59
2017-10-24T09:52:02.935Z,89.60
2017-10-24T09:53:09.796Z,89.58
2017-10-24T09:54:16.653Z,89.57
2017-10-24T09:55:23.658Z,89.53
2017-10-24T09:56:30.497Z,89.52
2017-10-24T09:57:37.502Z,89.50
2017-10-24T09:58:44.449Z,89.51
2017-10-24T09:59:51.562Z,89.55
2017-10-24T10:00:58.528Z,89.53
2017-10-24T10:02:05.522Z,89.54
2017-10-24T10:03:12.348Z,89.52
2017-10-24T10:04:19.173Z,89.52
2017-10-24T10:05:26.001Z,89.53
2017-10-24T10:06:32.875Z,89.53
2017-10-24T10:07:39.675Z,89.52
2017-10-24T10:08:46.459Z,89.47
2017-10-24T10:09:53.264Z,89.46
2017-10-24T10:11:00.086Z,89.44
2017-10-24T10:12:06.986Z,89.42
2017-10-24T10:13:13.808Z,89.43
2017-10-24T10:14:20.667Z,89.40
2017-10-24T10:15:27.439Z,89.39
2017-10-24T10:16:34.190Z,89.37
2017-10-24T10:17:41.004Z,89.35
2017-10-24T10:18:47.793Z,89.32
2017-10-24T10:19:54.749Z,89.32
2017-10-24T10:21:01.565Z,89.28
2017-10-24T10:22:08.550Z,89.29
2017-10-24T10:23:15.416Z,89.29
2017-10-24T10:24:22.318Z,89.28
2017-10-24T10:25:29.332Z,89.26
2017-10-24T10:26:36.109Z,89.29
2017-10-24T10:27:42.911Z,89.29
2017-10-24T10:28:49.729Z,89.28
2017-10-24T10:29:56.475Z,89.28
2017-10-24T10:31:03.248Z,89.23
2017-10-24T10:32:10.085Z,89.26
2017-10-24T10:33:16.925Z,89.28
2017-10-24T10:34:23.754Z,89.28
2017-10-24T10:35:30.546Z,89.28
2017-10-24T10:36:37.337Z,89.21
2017-10-24T10:37:44.280Z,89.19
2017-10-24T10:38:51.098Z,89.16
2017-10-24T10:39:57.893Z,89.15
2017-10-24T10:41:04.708Z,89.19
2017-10-24T10:42:11.444Z,89.17
2017-10-24T10:43:18.240Z,89.19
2017-10-24T10:44:25.072Z,89.20
2017-10-24T10:45:31.917Z,89.19
2017-10-24T10:46:38.945Z,89.18
2017-10-24T10:47:45.677Z,89.15
2017-10-24T10:48:52.489Z,89.15
2017-10-24T10:49:59.419Z,89.17
2017-10-24T10:51:06.236Z,89.15
2017-10-24T10:52:12.971Z,89.17
2017-10-24T10:53:20.020Z,89.17
2017-10-24T10:54:26.836Z,89.12
2017-10-24T10:55:33.725Z,89.13
2017-10-24T10:56:40.543Z,89.13
2017-10-24T10:57:47.289Z,89.16
2017-10-24T10:58:54.092Z,89.14
2017-10-24T11:00:00.909Z,89.07
2017-10-24T11:01:07.840Z,89.11
2017-10-24T11:02:14.648Z,89.12
2017-10-24T11:03:21.433Z,89.13
2017-10-24T11:04:28.206Z,89.10
2017-10-24T11:05:35.044Z,89.09
2017-10-24T11:06:41.797Z,89.05
2017-10-24T11:07:48.582Z,89.05
2017-10-24T11:08:55.444Z,89.07
2017-10-24T11:10:02.261Z,89.06
2017-10-24T11:11:09.107Z,89.05
2017-10-24T11:12:15.901Z,89.06
2017-10-24T11:13:22.700Z,89.04
2017-10-24T11:14:29.465Z,89.01
2017-10-24T11:15:36.274Z,88.99
2017-10-24T11:16:43.310Z,88.97
2017-10-24T11:17:50.208Z,89.00
2017-10-24T11:18:57.084Z,88.97
2017-10-24T11:20:04.334Z,89.01
2017-10-24T11:21:10.636Z,89.04
2017-10-24T11:22:17.417Z,89.06
2017-10-24T11:23:24.199Z,89.07
2017-10-24T11:24:31.209Z,89.03
2017-10-24T11:25:38.097Z,89.00
2017-10-24T11:26:44.871Z,88.97
2017-10-24T11:27:51.625Z,88.96
2017-10-24T11:28:58.430Z,88.92
2017-10-24T11:30:05.198Z,88.88
2017-10-24T11:31:11.944Z,88.88
2017-10-24T11:32:18.759Z,88.94
2017-10-24T11:33:25.532Z,88.97
2017-10-24T11:34:32.285Z,89.01
2017-10-24T11:35:39.089Z,89.02
2017-10-24T11:36:45.846Z,88.99
2017-10-24T11:37:52.580Z,89.06
2017-10-24T11:38:59.353Z,89.06
2017-10-24T11:40:06.094Z,89.08
2017-10-24T11:41:12.864Z,89.06
2017-10-24T11:42:19.601Z,89.08
2017-10-24T11:43:26.494Z,89.08
2017-10-24T11:44:33.282Z,89.09
2017-10-24T11:45:40.101Z,89.13
2017-10-24T11:46:46.833Z,89.16
2017-10-24T11:47:53.800Z,89.11
2017-10-24T11:49:00.556Z,89.08
2017-10-24T11:50:07.332Z,89.07
2017-10-24T11:51:14.145Z,89.15
2017-10-24T11:52:20.874Z,89.17
2017-10-24T11:53:27.677Z,89.17
2017-10-24T11:54:34.502Z,89.22
2017-10-24T11:55:41.305Z,89.21
2017-10-24T11:56:48.072Z,89.17
2017-10-24T11:57:55.116Z,89.15
2017-10-24T11:59:01.968Z,89.18
2017-10-24T12:00:08.706Z,89.17
2017-10-24T12:01:15.497Z,89.11
2017-10-24T12:02:22.300Z,89.08
2017-10-24T12:03:29.189Z,89.07
2017-10-24T12:04:36.410Z,89.05
2017-10-24T12:05:42.717Z,89.01
2017-10-24T12:06:49.474Z,89.03
2017-10-24T12:07:56.260Z,89.04
2017-10-24T12:09:03.025Z,89.03
2017-10-24T12:10:09.820Z,88.97
2017-10-24T12:11:16.578Z,88.93
2017-10-24T12:12:23.351Z,88.93
2017-10-24T12:13:30.160Z,88.91
2017-10-24T12:14:37.059Z,88.91
2017-10-24T12:15:43.798Z,88.93
2017-10-24T12:16:50.542Z,88.89
2017-10-24T12:17:57.406Z,88.88
2017-10-24T12:19:04.212Z,88.87
2017-10-24T12:20:11.107Z,88.83
2017-10-24T12:21:17.879Z,88.83
2017-10-24T12:22:24.729Z,88.85
2017-10-24T12:23:31.573Z,88.85
2017-10-24T12:24:38.374Z,88.83
2017-10-24T12:25:45.198Z,88.37
2017-10-24T12:26:52.038Z,88.76
2017-10-24T12:27:58.803Z,88.81
2017-10-24T12:29:05.605Z,88.79
2017-10-24T12:30:12.420Z,88.75
2017-10-24T12:31:19.270Z,88.74
2017-10-24T12:32:26.069Z,88.71
2017-10-24T12:33:32.956Z,88.69
2017-10-24T12:34:39.704Z,88.66
2017-10-24T12:35:46.600Z,88.67
2017-10-24T12:36:53.421Z,88.70
2017-10-24T12:38:00.190Z,88.67
2017-10-24T12:39:07.077Z,88.70
2017-10-24T12:40:13.906Z,88.67
2017-10-24T12:41:20.785Z,88.67
2017-10-24T12:42:27.621Z,88.71
2017-10-24T12:43:34.565Z,88.71
2017-10-24T12:44:41.384Z,88.77
2017-10-24T12:45:48.261Z,88.79
2017-10-24T12:46:55.157Z,88.77
2017-10-24T12:48:02.026Z,88.81
2017-10-24T12:49:08.893Z,88.82
2017-10-24T12:50:15.823Z,88.84
2017-10-24T12:51:22.636Z,88.84
2017-10-24T12:52:29.495Z,88.84
2017-10-24T12:53:36.392Z,88.82
2017-10-24T12:54:43.215Z,88.87
2017-10-24T12:55:50.069Z,88.95
2017-10-24T12:56:56.956Z,88.98
2017-10-24T12:58:03.817Z,88.99
2017-10-24T12:59:10.794Z,89.02
2017-10-24T13:00:17.658Z,89.03
2017-10-24T13:01:24.457Z,89.05
2017-10-24T13:02:31.261Z,89.08
2017-10-24T13:03:38.188Z,89.11
2017-10-24T13:04:45.031Z,89.14
2017-10-24T13:05:51.998Z,89.16
2017-10-24T13:06:58.830Z,89.15
2017-10-24T13:08:05.655Z,89.10
2017-10-24T13:09:12.492Z,89.09
2017-10-24T13:10:19.292Z,89.11
2017-10-24T13:11:26.100Z,89.11
2017-10-24T13:12:32.901Z,89.12
2017-10-24T13:13:39.757Z,89.14
2017-10-24T13:14:46.578Z,89.12
2017-10-24T13:15:53.485Z,89.12
2017-10-24T13:17:00.380Z,89.14
2017-10-24T13:18:07.221Z,89.13
2017-10-24T13:19:14.014Z,89.12
2017-10-24T13:20:20.833Z,89.08
2017-10-24T13:21:27.596Z,89.08
2017-10-24T13:22:34.356Z,89.10
2017-10-24T13:23:41.112Z,89.03
2017-10-24T13:24:47.967Z,89.04
2017-10-24T13:25:54.708Z,89.07
2017-10-24T13:27:01.470Z,89.08
2017-10-24T13:28:08.312Z,89.07
2017-10-24T13:29:15.069Z,89.06
2017-10-24T13:30:21.892Z,89.04
2017-10-24T13:31:28.671Z,89.08
2017-10-24T13:32:35.537Z,89.08
2017-10-24T13:33:42.396Z,89.05
2017-10-24T13:34:49.209Z,89.08
2017-10-24T13:35:55.958Z,89.08
2017-10-24T13:37:02.776Z,89.09
2017-10-24T13:38:09.565Z,89.14
2017-10-24T13:39:16.332Z,89.07
2017-10-24T13:40:23.133Z,89.06
2017-10-24T13:41:30.145Z,89.05
2017-10-24T13:42:36.870Z,89.08
2017-10-24T13:43:43.613Z,89.06
2017-10-24T13:44:50.354Z,89.06
2017-10-24T13:45:57.200Z,89.04
2017-10-24T13:47:03.977Z,89.07
2017-10-24T13:48:10.727Z,89.06
2017-10-24T13:49:17.516Z,89.03
2017-10-24T13:50:24.252Z,89.05
2017-10-24T13:51:31.050Z,89.03
2017-10-24T13:52:37.889Z,88.96
2017-10-24T13:53:44.649Z,88.96
2017-10-24T13:54:51.425Z,88.92
2017-10-24T13:55:58.272Z,88.91
2017-10-24T13:57:05.073Z,88.90
2017-10-24T13:58:11.865Z,88.90
2017-10-24T13:59:18.640Z,88.87
2017-10-24T14:00:25.417Z,88.83
2017-10-24T14:01:32.217Z,88.78
2017-10-24T14:02:39.021Z,88.79
2017-10-24T14:03:45.885Z,88.78
2017-10-24T14:04:52.609Z,88.76
2017-10-24T14:05:59.405Z,88.76
2017-10-24T14:07:06.440Z,88.73
2017-10-24T14:08:13.344Z,88.72
2017-10-24T14:10:32.869Z,88.72
2017-10-24T14:11:32.546Z,88.69
2017-10-24T14:12:39.349Z,88.67
2017-10-24T14:13:46.082Z,88.67
2017-10-24T14:14:52.853Z,88.68
2017-10-24T14:15:59.602Z,88.63
2017-10-24T14:17:06.401Z,88.62
2017-10-24T14:18:13.339Z,88.60
2017-10-24T14:19:20.129Z,88.61
2017-10-24T14:20:26.977Z,88.59
2017-10-24T14:21:33.749Z,88.55